createdAt,value
2018-03-29T00:00:53.062Z,983.1
2018-03-29T00:01:53.805Z,983.1
2018-03-29T00:02:54.593Z,983.1
2018-03-29T00:03:55.327Z,983.1
2018-03-29T00:04:56.025Z,983.2
2018-03-29T00:05:56.762Z,983.2
2018-03-29T00:06:57.484Z,983.2
2018-03-29T00:07:58.207Z,983.2
2018-03-29T00:08:58.939Z,983.3
2018-03-29T00:09:59.666Z,983.3
2018-03-29T00:11:00.396Z,983.3
2018-03-29T00:12:01.186Z,983.3
2018-03-29T00:13:01.923Z,983.3
2018-03-29T00:14:02.724Z,983.3
2018-03-29T00:15:03.505Z,983.4
2018-03-29T00:16:04.225Z,983.4
2018-03-29T00:17:05.014Z,983.4
2018-03-29T00:18:05.759Z,983.4
2018-03-29T00:19:06.550Z,983.4
2018-03-29T00:20:07.270Z,983.5
2018-03-29T00:21:07.991Z,983.4
2018-03-29T00:22:08.772Z,983.5
2018-03-29T00:23:09.543Z,983.5
2018-03-29T00:24:10.273Z,983.6
2018-03-29T00:25:10.996Z,983.6
2018-03-29T00:26:11.728Z,983.6
2018-03-29T00:27:13.228Z,983.6
2018-03-29T00:28:13.950Z,983.6
2018-03-29T00:29:14.745Z,983.7
2018-03-29T00:30:15.481Z,983.7
2018-03-29T00:31:16.195Z,983.7
2018-03-29T00:32:17.044Z,983.9
2018-03-29T00:33:17.768Z,983.9
2018-03-29T00:34:18.489Z,983.9
2018-03-29T00:35:19.206Z,983.8
2018-03-29T00:36:19.940Z,983.9
2018-03-29T00:37:20.707Z,983.9
2018-03-29T00:38:21.420Z,984.0
2018-03-29T00:39:22.137Z,984.0
2018-03-29T00:40:22.935Z,984.0
2018-03-29T00:41:23.769Z,984.0
2018-03-29T00:42:24.536Z,984.0
2018-03-29T00:43:25.274Z,984.0
2018-03-29T00:44:26.068Z,984.1
2018-03-29T00:45:26.791Z,984.1
2018-03-29T00:46:27.516Z,984.2
2018-03-29T00:47:28.251Z,984.2
2018-03-29T00:48:28.966Z,984.2
2018-03-29T00:49:29.697Z,984.2
2018-03-29T00:50:30.833Z,984.3
2018-03-29T00:51:31.569Z,984.3
2018-03-29T00:52:32.276Z,984.3
2018-03-29T00:53:33.066Z,984.4
2018-03-29T00:54:33.786Z,984.4
2018-03-29T00:55:34.563Z,984.4
2018-03-29T00:56:35.334Z,984.4
2018-03-29T00:57:36.163Z,984.4
2018-03-29T00:58:36.899Z,984.4
2018-03-29T00:59:37.703Z,984.4
2018-03-29T01:00:38.382Z,984.4
2018-03-29T01:01:39.136Z,984.5
2018-03-29T01:02:39.951Z,984.5
2018-03-29T01:03:40.746Z,984.5
2018-03-29T01:04:41.450Z,984.5
2018-03-29T01:05:42.226Z,984.4
2018-03-29T01:06:42.940Z,984.5
2018-03-29T01:07:43.660Z,984.6
2018-03-29T01:08:44.443Z,984.5
2018-03-29T01:09:45.148Z,984.6
2018-03-29T01:10:45.888Z,984.6
2018-03-29T01:11:46.634Z,984.6
2018-03-29T01:12:47.358Z,984.6
2018-03-29T01:13:48.073Z,984.7
2018-03-29T01:14:48.870Z,984.7
2018-03-29T01:15:49.678Z,984.7
2018-03-29T01:16:50.446Z,984.7
2018-03-29T01:17:51.245Z,984.6
2018-03-29T01:18:51.975Z,984.7
2018-03-29T01:19:52.756Z,984.7
2018-03-29T01:20:53.554Z,984.7
2018-03-29T01:21:54.312Z,984.7
2018-03-29T01:22:55.010Z,984.7
2018-03-29T01:23:55.797Z,984.8
2018-03-29T01:24:56.585Z,984.7
2018-03-29T01:25:57.320Z,984.8
2018-03-29T01:26:58.135Z,984.8
2018-03-29T01:27:58.924Z,984.8
2018-03-29T01:28:59.635Z,984.8
2018-03-29T01:30:00.356Z,984.9
2018-03-29T01:31:01.147Z,984.9
2018-03-29T01:32:01.878Z,984.8
2018-03-29T01:33:02.583Z,984.9
2018-03-29T01:34:03.309Z,984.9
2018-03-29T01:35:03.975Z,984.9
2018-03-29T01:36:04.791Z,984.9
2018-03-29T01:37:05.514Z,984.9
2018-03-29T01:38:06.224Z,985.0
2018-03-29T01:39:06.938Z,984.9
2018-03-29T01:40:07.659Z,985.0
2018-03-29T01:41:08.374Z,985.0
2018-03-29T01:42:09.177Z,985.0
2018-03-29T01:43:09.953Z,985.0
2018-03-29T01:44:10.673Z,985.0
2018-03-29T01:45:11.465Z,985.0
2018-03-29T01:46:12.180Z,985.0
2018-03-29T01:47:12.944Z,985.0
2018-03-29T01:48:13.741Z,985.0
2018-03-29T01:49:14.533Z,985.1
2018-03-29T01:50:15.255Z,985.1
2018-03-29T01:51:15.963Z,985.1
2018-03-29T01:52:16.702Z,985.0
2018-03-29T01:53:17.417Z,985.1
2018-03-29T01:54:18.150Z,985.2
2018-03-29T01:55:18.868Z,985.1
2018-03-29T01:56:19.596Z,985.1
2018-03-29T01:57:20.308Z,985.1
2018-03-29T01:58:21.028Z,985.0
2018-03-29T01:59:21.758Z,985.0
2018-03-29T02:00:22.556Z,985.1
2018-03-29T02:01:23.323Z,985.1
2018-03-29T02:02:24.047Z,985.1
2018-03-29T02:03:24.769Z,985.1
2018-03-29T02:04:25.488Z,985.2
2018-03-29T02:05:26.214Z,985.1
2018-03-29T02:06:27.030Z,985.2
2018-03-29T02:07:27.812Z,985.2
2018-03-29T02:08:28.538Z,985.2
2018-03-29T02:09:29.251Z,985.2
2018-03-29T02:10:29.976Z,985.2
2018-03-29T02:11:30.684Z,985.2
2018-03-29T02:12:31.393Z,985.2
2018-03-29T02:13:32.122Z,985.2
2018-03-29T02:14:32.848Z,985.3
2018-03-29T02:15:33.590Z,985.3
2018-03-29T02:16:34.391Z,985.3
2018-03-29T02:17:35.188Z,985.3
2018-03-29T02:18:35.906Z,985.4
2018-03-29T02:19:36.624Z,985.4
2018-03-29T02:20:37.472Z,985.4
2018-03-29T02:21:38.188Z,985.4
2018-03-29T02:22:38.922Z,985.4
2018-03-29T02:23:39.650Z,985.4
2018-03-29T02:24:40.360Z,985.5
2018-03-29T02:25:41.144Z,985.4
2018-03-29T02:26:41.928Z,985.5
2018-03-29T02:27:42.657Z,985.5
2018-03-29T02:28:43.376Z,985.5
2018-03-29T02:29:44.176Z,985.5
2018-03-29T02:30:44.938Z,985.5
2018-03-29T02:31:45.664Z,985.5
2018-03-29T02:32:46.398Z,985.5
2018-03-29T02:33:47.107Z,985.5
2018-03-29T02:34:47.895Z,985.5
2018-03-29T02:35:48.614Z,985.5
2018-03-29T02:36:49.410Z,985.5
2018-03-29T02:37:50.169Z,985.5
2018-03-29T02:38:50.891Z,985.6
2018-03-29T02:39:51.605Z,985.6
2018-03-29T02:40:52.341Z,985.6
2018-03-29T02:41:53.067Z,985.6
2018-03-29T02:42:53.800Z,985.6
2018-03-29T02:43:54.590Z,985.7
2018-03-29T02:44:55.284Z,985.7
2018-03-29T02:45:56.008Z,985.6
2018-03-29T02:46:56.806Z,985.6
2018-03-29T02:47:57.514Z,985.7
2018-03-29T02:48:58.254Z,985.7
2018-03-29T02:49:59.011Z,985.7
2018-03-29T02:50:59.816Z,985.7
2018-03-29T02:52:00.573Z,985.7
2018-03-29T02:53:01.281Z,985.7
2018-03-29T02:54:02.020Z,985.7
2018-03-29T02:55:03.013Z,985.7
2018-03-29T02:56:03.796Z,985.7
2018-03-29T02:57:04.582Z,985.8
2018-03-29T02:58:05.368Z,985.8
2018-03-29T02:59:06.087Z,985.8
2018-03-29T03:00:06.796Z,985.8
2018-03-29T03:01:07.520Z,985.8
2018-03-29T03:02:08.223Z,985.9
2018-03-29T03:03:08.971Z,985.8
2018-03-29T03:04:09.697Z,985.9
2018-03-29T03:05:10.516Z,985.9
2018-03-29T03:06:11.229Z,985.9
2018-03-29T03:07:12.034Z,985.9
2018-03-29T03:08:12.831Z,986.0
2018-03-29T03:09:13.613Z,986.0
2018-03-29T03:10:14.344Z,985.9
2018-03-29T03:11:15.066Z,986.0
2018-03-29T03:12:15.806Z,986.0
2018-03-29T03:13:16.562Z,986.0
2018-03-29T03:14:17.271Z,986.0
2018-03-29T03:15:18.011Z,986.0
2018-03-29T03:16:18.724Z,986.0
2018-03-29T03:17:19.540Z,986.0
2018-03-29T03:18:20.241Z,986.1
2018-03-29T03:19:21.066Z,986.1
2018-03-29T03:20:21.826Z,986.1
2018-03-29T03:21:22.557Z,986.1
2018-03-29T03:22:23.273Z,986.2
2018-03-29T03:23:24.032Z,986.2
2018-03-29T03:24:24.799Z,986.2
2018-03-29T03:25:25.565Z,986.2
2018-03-29T03:26:26.372Z,986.2
2018-03-29T03:27:27.179Z,986.2
2018-03-29T03:28:27.902Z,986.2
2018-03-29T03:29:28.622Z,986.2
2018-03-29T03:30:29.414Z,986.3
2018-03-29T03:31:30.219Z,986.3
2018-03-29T03:32:31.065Z,986.3
2018-03-29T03:33:31.854Z,986.3
2018-03-29T03:34:32.651Z,986.3
2018-03-29T03:35:33.380Z,986.3
2018-03-29T03:36:34.117Z,986.3
2018-03-29T03:37:34.837Z,986.3
2018-03-29T03:38:35.686Z,986.3
2018-03-29T03:39:36.413Z,986.3
2018-03-29T03:40:37.133Z,986.3
2018-03-29T03:41:37.935Z,986.3
2018-03-29T03:42:38.651Z,986.3
2018-03-29T03:43:39.438Z,986.3
2018-03-29T03:44:40.202Z,986.3
2018-03-29T03:45:40.922Z,986.3
2018-03-29T03:46:41.717Z,986.4
2018-03-29T03:47:42.422Z,986.4
2018-03-29T03:48:43.137Z,986.4
2018-03-29T03:49:43.855Z,986.5
2018-03-29T03:50:44.869Z,986.5
2018-03-29T03:51:45.615Z,986.5
2018-03-29T03:52:46.375Z,986.5
2018-03-29T03:53:47.093Z,986.5
2018-03-29T03:54:47.824Z,986.5
2018-03-29T03:55:48.592Z,986.6
2018-03-29T03:56:49.381Z,986.6
2018-03-29T03:57:50.100Z,986.7
2018-03-29T03:58:50.829Z,986.7
2018-03-29T03:59:51.546Z,986.7
2018-03-29T04:00:52.315Z,986.6
2018-03-29T04:01:53.046Z,986.7
2018-03-29T04:02:53.761Z,986.7
2018-03-29T04:03:54.499Z,986.7
2018-03-29T04:04:55.216Z,986.7
2018-03-29T04:05:55.985Z,986.7
2018-03-29T04:06:56.730Z,986.7
2018-03-29T04:07:57.435Z,986.8
2018-03-29T04:08:58.227Z,986.7
2018-03-29T04:09:58.942Z,986.7
2018-03-29T04:10:59.664Z,986.8
2018-03-29T04:12:00.733Z,986.8
2018-03-29T04:13:01.527Z,986.7
2018-03-29T04:14:02.321Z,986.7
2018-03-29T04:15:03.103Z,986.8
2018-03-29T04:16:03.877Z,986.8
2018-03-29T04:17:04.687Z,986.8
2018-03-29T04:18:05.423Z,986.8
2018-03-29T04:19:06.167Z,986.9
2018-03-29T04:20:06.884Z,986.8
2018-03-29T04:21:07.671Z,986.8
2018-03-29T04:22:08.510Z,986.8
2018-03-29T04:23:09.235Z,986.8
2018-03-29T04:24:10.026Z,986.8
2018-03-29T04:25:10.758Z,986.8
2018-03-29T04:26:11.487Z,986.9
2018-03-29T04:27:12.204Z,987.0
2018-03-29T04:28:12.914Z,986.9
2018-03-29T04:29:13.676Z,986.9
2018-03-29T04:30:14.457Z,987.0
2018-03-29T04:31:15.211Z,987.0
2018-03-29T04:32:15.990Z,987.0
2018-03-29T04:33:16.841Z,987.0
2018-03-29T04:34:17.564Z,987.0
2018-03-29T04:35:18.331Z,987.0
2018-03-29T04:36:19.029Z,987.1
2018-03-29T04:37:19.766Z,987.1
2018-03-29T04:38:20.500Z,987.0
2018-03-29T04:39:21.255Z,987.1
2018-03-29T04:40:22.039Z,987.1
2018-03-29T04:41:22.841Z,987.0
2018-03-29T04:42:23.565Z,987.1
2018-03-29T04:43:24.291Z,987.2
2018-03-29T04:44:25.397Z,987.1
2018-03-29T04:45:26.088Z,987.1
2018-03-29T04:46:26.813Z,987.1
2018-03-29T04:47:27.582Z,987.2
2018-03-29T04:48:28.352Z,987.2
2018-03-29T04:49:29.072Z,987.2
2018-03-29T04:50:29.800Z,987.3
2018-03-29T04:51:30.598Z,987.2
2018-03-29T04:52:31.384Z,987.2
2018-03-29T04:53:32.186Z,987.3
2018-03-29T04:54:32.901Z,987.2
2018-03-29T04:55:33.676Z,987.3
2018-03-29T04:56:34.351Z,987.3
2018-03-29T04:57:35.076Z,987.3
2018-03-29T04:58:35.819Z,987.3
2018-03-29T04:59:36.595Z,987.4
2018-03-29T05:00:37.319Z,987.4
2018-03-29T05:01:38.035Z,987.4
2018-03-29T05:02:38.750Z,987.4
2018-03-29T05:03:39.475Z,987.4
2018-03-29T05:04:40.206Z,987.5
2018-03-29T05:05:40.934Z,987.4
2018-03-29T05:06:41.651Z,987.4
2018-03-29T05:07:42.423Z,987.5
2018-03-29T05:08:43.222Z,987.4
2018-03-29T05:09:43.951Z,987.4
2018-03-29T05:10:44.690Z,987.4
2018-03-29T05:11:45.467Z,987.5
2018-03-29T05:12:46.196Z,987.5
2018-03-29T05:13:46.912Z,987.5
2018-03-29T05:14:47.657Z,987.5
2018-03-29T05:15:48.434Z,987.5
2018-03-29T05:16:49.240Z,987.6
2018-03-29T05:17:49.952Z,987.5
2018-03-29T05:18:50.667Z,987.6
2018-03-29T05:19:51.383Z,987.5
2018-03-29T05:20:52.104Z,987.6
2018-03-29T05:21:52.812Z,987.5
2018-03-29T05:22:53.541Z,987.5
2018-03-29T05:23:54.307Z,987.5
2018-03-29T05:24:55.114Z,987.5
2018-03-29T05:25:55.846Z,987.6
2018-03-29T05:26:56.558Z,987.5
2018-03-29T05:27:57.272Z,987.6
2018-03-29T05:28:58.006Z,987.5
2018-03-29T05:29:58.740Z,987.6
2018-03-29T05:30:59.560Z,987.6
2018-03-29T05:32:00.289Z,987.6
2018-03-29T05:33:01.093Z,987.6
2018-03-29T05:34:01.892Z,987.6
2018-03-29T05:35:02.620Z,987.7
2018-03-29T05:36:03.350Z,987.7
2018-03-29T05:37:04.167Z,987.8
2018-03-29T05:38:04.892Z,987.8
2018-03-29T05:39:05.623Z,987.7
2018-03-29T05:40:06.348Z,987.8
2018-03-29T05:41:07.066Z,987.8
2018-03-29T05:42:07.791Z,987.8
2018-03-29T05:43:08.564Z,987.8
2018-03-29T05:44:09.307Z,987.8
2018-03-29T05:45:10.026Z,987.8
2018-03-29T05:46:10.753Z,987.8
2018-03-29T05:47:11.601Z,987.8
2018-03-29T05:48:12.355Z,987.8
2018-03-29T05:49:13.175Z,987.8
2018-03-29T05:50:13.881Z,987.8
2018-03-29T05:51:14.616Z,987.8
2018-03-29T05:52:15.641Z,987.8
2018-03-29T05:53:16.384Z,987.8
2018-03-29T05:54:17.191Z,987.7
2018-03-29T05:55:17.914Z,987.8
2018-03-29T05:56:18.655Z,987.8
2018-03-29T05:57:19.452Z,987.8
2018-03-29T05:58:20.182Z,987.8
2018-03-29T05:59:20.913Z,987.9
2018-03-29T06:00:21.640Z,987.8
2018-03-29T06:01:22.431Z,987.8
2018-03-29T06:02:23.178Z,987.9
2018-03-29T06:03:23.994Z,987.9
2018-03-29T06:04:24.784Z,987.9
2018-03-29T06:05:25.523Z,988.0
2018-03-29T06:06:26.309Z,987.9
2018-03-29T06:07:27.042Z,987.9
2018-03-29T06:08:27.864Z,987.9
2018-03-29T06:09:28.605Z,987.9
2018-03-29T06:10:29.393Z,987.9
2018-03-29T06:11:30.145Z,987.9
2018-03-29T06:12:30.893Z,988.0
2018-03-29T06:13:31.615Z,987.9
2018-03-29T06:14:32.418Z,987.9
2018-03-29T06:15:33.256Z,988.0
2018-03-29T06:16:33.994Z,988.0
2018-03-29T06:17:34.712Z,987.9
2018-03-29T06:18:35.446Z,987.9
2018-03-29T06:19:36.153Z,987.9
2018-03-29T06:20:36.888Z,987.9
2018-03-29T06:21:37.676Z,987.9
2018-03-29T06:22:38.412Z,987.9
2018-03-29T06:23:39.220Z,987.9
2018-03-29T06:24:40.032Z,987.9
2018-03-29T06:25:40.843Z,987.9
2018-03-29T06:26:41.636Z,988.0
2018-03-29T06:27:42.355Z,987.9
2018-03-29T06:28:43.142Z,988.0
2018-03-29T06:29:43.920Z,988.0
2018-03-29T06:30:44.601Z,988.1
2018-03-29T06:31:45.389Z,988.1
2018-03-29T06:32:46.162Z,988.1
2018-03-29T06:33:46.893Z,988.0
2018-03-29T06:34:47.631Z,988.1
2018-03-29T06:35:48.366Z,988.1
2018-03-29T06:36:49.129Z,988.1
2018-03-29T06:37:49.863Z,988.2
2018-03-29T06:38:50.582Z,988.2
2018-03-29T06:39:51.337Z,988.2
2018-03-29T06:40:52.068Z,988.2
2018-03-29T06:41:52.846Z,988.2
2018-03-29T06:42:53.652Z,988.2
2018-03-29T06:43:54.353Z,988.3
2018-03-29T06:44:55.081Z,988.3
2018-03-29T06:45:55.804Z,988.3
2018-03-29T06:46:56.580Z,988.3
2018-03-29T06:47:57.264Z,988.3
2018-03-29T06:48:57.984Z,988.3
2018-03-29T06:49:58.806Z,988.3
2018-03-29T06:50:59.596Z,988.3
2018-03-29T06:52:00.378Z,988.3
2018-03-29T06:53:01.101Z,988.4
2018-03-29T06:54:01.884Z,988.4
2018-03-29T06:55:02.609Z,988.4
2018-03-29T06:56:03.324Z,988.4
2018-03-29T06:57:04.055Z,988.4
2018-03-29T06:58:04.783Z,988.5
2018-03-29T06:59:05.863Z,988.4
2018-03-29T07:00:06.651Z,988.4
2018-03-29T07:01:07.450Z,988.4
2018-03-29T07:02:08.185Z,988.5
2018-03-29T07:03:08.903Z,988.4
2018-03-29T07:04:09.634Z,988.5
2018-03-29T07:05:10.360Z,988.5
2018-03-29T07:06:11.133Z,988.5
2018-03-29T07:07:11.922Z,988.5
2018-03-29T07:08:12.639Z,988.5
2018-03-29T07:09:13.370Z,988.5
2018-03-29T07:10:14.194Z,988.5
2018-03-29T07:11:14.977Z,988.5
2018-03-29T07:12:15.719Z,988.6
2018-03-29T07:13:16.463Z,988.6
2018-03-29T07:14:17.220Z,988.6
2018-03-29T07:15:17.935Z,988.6
2018-03-29T07:16:18.732Z,988.6
2018-03-29T07:17:19.552Z,988.6
2018-03-29T07:18:21.043Z,988.6
2018-03-29T07:19:21.707Z,988.6
2018-03-29T07:20:22.447Z,988.6
2018-03-29T07:21:23.262Z,988.6
2018-03-29T07:22:24.048Z,988.6
2018-03-29T07:23:24.802Z,988.6
2018-03-29T07:24:25.594Z,988.6
2018-03-29T07:25:26.352Z,988.6
2018-03-29T07:26:27.091Z,988.6
2018-03-29T07:27:27.943Z,988.6
2018-03-29T07:28:28.674Z,988.6
2018-03-29T07:29:29.493Z,988.6
2018-03-29T07:30:30.214Z,988.6
2018-03-29T07:31:31.015Z,988.6
2018-03-29T07:32:32.092Z,988.5
2018-03-29T07:33:32.817Z,988.6
2018-03-29T07:34:33.546Z,988.6
2018-03-29T07:35:34.278Z,988.6
2018-03-29T07:36:35.046Z,988.6
2018-03-29T07:37:35.757Z,988.6
2018-03-29T07:38:36.492Z,988.6
2018-03-29T07:39:37.296Z,988.6
2018-03-29T07:40:38.033Z,988.6
2018-03-29T07:41:38.779Z,988.6
2018-03-29T07:42:39.501Z,988.6
2018-03-29T07:43:41.603Z,988.6
2018-03-29T07:44:42.589Z,988.6
2018-03-29T07:45:43.303Z,988.6
2018-03-29T07:46:44.104Z,988.7
2018-03-29T07:47:44.825Z,988.6
2018-03-29T07:48:46.404Z,988.7
2018-03-29T07:49:48.077Z,988.7
2018-03-29T07:50:48.765Z,988.6
2018-03-29T07:51:49.572Z,988.7
2018-03-29T07:52:50.402Z,988.7
2018-03-29T07:53:51.167Z,988.6
2018-03-29T07:54:51.906Z,988.6
2018-03-29T07:55:52.714Z,988.6
2018-03-29T07:56:53.538Z,988.6
2018-03-29T07:57:54.320Z,988.6
2018-03-29T07:58:55.030Z,988.6
2018-03-29T07:59:55.756Z,988.6
2018-03-29T08:00:56.793Z,988.6
2018-03-29T08:01:57.511Z,988.5
2018-03-29T08:02:58.244Z,988.5
2018-03-29T08:03:59.001Z,988.5
2018-03-29T08:04:59.793Z,988.6
2018-03-29T08:06:00.537Z,988.6
2018-03-29T08:07:01.678Z,988.6
2018-03-29T08:08:02.357Z,988.5
2018-03-29T08:09:03.116Z,988.6
2018-03-29T08:10:03.860Z,988.5
2018-03-29T08:11:04.596Z,988.6
2018-03-29T08:12:05.314Z,988.6
2018-03-29T08:13:06.044Z,988.6
2018-03-29T08:14:07.537Z,988.6
2018-03-29T08:15:08.714Z,988.6
2018-03-29T08:16:09.444Z,988.5
2018-03-29T08:17:10.222Z,988.5
2018-03-29T08:18:11.071Z,988.6
2018-03-29T08:19:11.934Z,988.5
2018-03-29T08:20:12.901Z,988.5
2018-03-29T08:21:13.581Z,988.5
2018-03-29T08:22:14.326Z,988.6
2018-03-29T08:23:15.120Z,988.6
2018-03-29T08:24:15.871Z,988.6
2018-03-29T08:25:16.540Z,988.6
2018-03-29T08:26:17.282Z,988.6
2018-03-29T08:27:18.080Z,988.6
2018-03-29T08:28:18.816Z,988.6
2018-03-29T08:29:19.543Z,988.6
2018-03-29T08:30:20.296Z,988.6
2018-03-29T08:31:21.110Z,988.7
2018-03-29T08:32:21.809Z,988.6
2018-03-29T08:33:22.602Z,988.6
2018-03-29T08:34:23.393Z,988.6
2018-03-29T08:35:24.217Z,988.6
2018-03-29T08:36:25.000Z,988.6
2018-03-29T08:37:25.793Z,988.6
2018-03-29T08:38:26.517Z,988.6
2018-03-29T08:39:27.316Z,988.6
2018-03-29T08:40:28.058Z,988.6
2018-03-29T08:41:28.835Z,988.6
2018-03-29T08:42:30.184Z,988.6
2018-03-29T08:43:30.860Z,988.7
2018-03-29T08:44:31.583Z,988.7
2018-03-29T08:45:32.356Z,988.8
2018-03-29T08:46:33.094Z,988.7
2018-03-29T08:47:33.940Z,988.7
2018-03-29T08:48:34.744Z,988.8
2018-03-29T08:49:35.473Z,988.7
2018-03-29T08:50:36.231Z,988.8
2018-03-29T08:51:36.952Z,988.8
2018-03-29T08:52:37.745Z,988.8
2018-03-29T08:53:38.484Z,988.8
2018-03-29T08:54:39.216Z,988.8
2018-03-29T08:55:39.952Z,988.8
2018-03-29T08:56:40.761Z,988.8
2018-03-29T08:57:41.478Z,988.9
2018-03-29T08:58:42.212Z,988.9
2018-03-29T08:59:43.314Z,988.9
2018-03-29T09:00:43.981Z,988.9
2018-03-29T09:01:44.743Z,988.9
2018-03-29T09:02:45.541Z,988.9
2018-03-29T09:03:46.270Z,988.9
2018-03-29T09:04:47.047Z,988.9
2018-03-29T09:05:47.795Z,989.0
2018-03-29T09:06:48.509Z,989.0
2018-03-29T09:07:49.321Z,989.0
2018-03-29T09:08:50.760Z,989.0
2018-03-29T09:09:51.433Z,989.0
2018-03-29T09:10:52.186Z,989.0
2018-03-29T09:11:52.913Z,989.1
2018-03-29T09:12:53.641Z,989.0
2018-03-29T09:13:54.432Z,989.1
2018-03-29T09:14:55.226Z,989.1
2018-03-29T09:15:56.025Z,989.1
2018-03-29T09:16:56.852Z,989.0
2018-03-29T09:17:57.569Z,989.1
2018-03-29T09:18:58.299Z,989.1
2018-03-29T09:19:59.074Z,989.1
2018-03-29T09:20:59.978Z,989.1
2018-03-29T09:22:00.628Z,989.1
2018-03-29T09:23:01.423Z,989.1
2018-03-29T09:24:02.242Z,989.1
2018-03-29T09:25:02.968Z,989.2
2018-03-29T09:26:03.706Z,989.1
2018-03-29T09:27:04.422Z,989.2
2018-03-29T09:28:05.335Z,989.2
2018-03-29T09:29:06.216Z,989.2
2018-03-29T09:30:06.919Z,989.2
2018-03-29T09:31:07.723Z,989.2
2018-03-29T09:32:08.546Z,989.3
2018-03-29T09:33:09.352Z,989.2
2018-03-29T09:34:10.087Z,989.2
2018-03-29T09:35:10.906Z,989.2
2018-03-29T09:36:11.646Z,989.3
2018-03-29T09:37:12.379Z,989.2
2018-03-29T09:38:13.119Z,989.2
2018-03-29T09:39:14.410Z,989.3
2018-03-29T09:40:15.078Z,989.2
2018-03-29T09:41:15.823Z,989.2
2018-03-29T09:42:16.578Z,989.3
2018-03-29T09:43:17.303Z,989.3
2018-03-29T09:44:18.030Z,989.3
2018-03-29T09:45:18.760Z,989.3
2018-03-29T09:46:19.840Z,989.3
2018-03-29T09:47:20.575Z,989.3
2018-03-29T09:48:21.382Z,989.3
2018-03-29T09:49:22.184Z,989.3
2018-03-29T09:50:22.912Z,989.4
2018-03-29T09:51:23.720Z,989.3
2018-03-29T09:52:24.459Z,989.4
2018-03-29T09:53:25.263Z,989.4
2018-03-29T09:54:25.985Z,989.4
2018-03-29T09:55:26.708Z,989.4
2018-03-29T09:56:27.802Z,989.4
2018-03-29T09:57:28.575Z,989.4
2018-03-29T09:58:29.304Z,989.4
2018-03-29T09:59:30.092Z,989.4
2018-03-29T10:00:30.834Z,989.4
2018-03-29T10:01:31.562Z,989.4
2018-03-29T10:02:32.353Z,989.4
2018-03-29T10:03:33.104Z,989.5
2018-03-29T10:04:33.881Z,989.4
2018-03-29T10:05:34.702Z,989.4
2018-03-29T10:06:35.492Z,989.4
2018-03-29T10:07:36.212Z,989.4
2018-03-29T10:08:37.304Z,989.4
2018-03-29T10:09:38.043Z,989.4
2018-03-29T10:10:38.834Z,989.5
2018-03-29T10:11:39.641Z,989.5
2018-03-29T10:12:40.453Z,989.5
2018-03-29T10:13:41.253Z,989.5
2018-03-29T10:14:42.002Z,989.5
2018-03-29T10:15:42.728Z,989.5
2018-03-29T10:16:43.475Z,989.5
2018-03-29T10:17:44.251Z,989.4
2018-03-29T10:18:44.983Z,989.5
2018-03-29T10:19:45.842Z,989.5
2018-03-29T10:20:46.662Z,989.5
2018-03-29T10:21:47.401Z,989.5
2018-03-29T10:22:48.134Z,989.4
2018-03-29T10:23:48.869Z,989.5
2018-03-29T10:24:49.672Z,989.4
2018-03-29T10:25:50.804Z,989.5
2018-03-29T10:26:51.610Z,989.5
2018-03-29T10:27:52.355Z,989.5
2018-03-29T10:28:53.148Z,989.5
2018-03-29T10:29:53.872Z,989.5
2018-03-29T10:30:54.665Z,989.5
2018-03-29T10:31:55.451Z,989.4
2018-03-29T10:32:56.154Z,989.5
2018-03-29T10:33:56.890Z,989.5
2018-03-29T10:34:57.623Z,989.5
2018-03-29T10:35:58.372Z,989.5
2018-03-29T10:36:59.091Z,989.5
2018-03-29T10:37:59.834Z,989.5
2018-03-29T10:39:00.541Z,989.5
2018-03-29T10:40:01.294Z,989.5
2018-03-29T10:41:02.093Z,989.5
2018-03-29T10:42:02.838Z,989.5
2018-03-29T10:43:03.643Z,989.5
2018-03-29T10:44:04.440Z,989.5
2018-03-29T10:45:05.185Z,989.5
2018-03-29T10:46:05.966Z,989.5
2018-03-29T10:47:06.772Z,989.5
2018-03-29T10:48:07.505Z,989.5
2018-03-29T10:49:08.251Z,989.5
2018-03-29T10:50:09.070Z,989.5
2018-03-29T10:51:09.820Z,989.5
2018-03-29T10:52:10.564Z,989.5
2018-03-29T10:53:11.330Z,989.5
2018-03-29T10:54:12.139Z,989.6
2018-03-29T10:55:12.940Z,989.5
2018-03-29T10:56:13.678Z,989.5
2018-03-29T10:57:14.942Z,989.5
2018-03-29T10:58:15.741Z,989.5
2018-03-29T10:59:16.556Z,989.5
2018-03-29T11:00:17.293Z,989.6
2018-03-29T11:01:18.023Z,989.5
2018-03-29T11:02:18.860Z,989.5
2018-03-29T11:03:19.698Z,989.6
2018-03-29T11:04:20.386Z,989.5
2018-03-29T11:05:21.204Z,989.5
2018-03-29T11:06:21.943Z,989.5
2018-03-29T11:07:22.726Z,989.5
2018-03-29T11:08:23.564Z,989.5
2018-03-29T11:09:24.345Z,989.5
2018-03-29T11:10:25.131Z,989.5
2018-03-29T11:11:25.957Z,989.5
2018-03-29T11:12:26.812Z,989.5
2018-03-29T11:13:27.697Z,989.5
2018-03-29T11:14:28.482Z,989.4
2018-03-29T11:15:29.213Z,989.4
2018-03-29T11:16:30.046Z,989.4
2018-03-29T11:17:30.898Z,989.5
2018-03-29T11:18:31.704Z,989.5
2018-03-29T11:19:32.435Z,989.5
2018-03-29T11:20:33.169Z,989.5
2018-03-29T11:21:33.976Z,989.5
2018-03-29T11:22:34.748Z,989.5
2018-03-29T11:23:35.924Z,989.5
2018-03-29T11:24:36.953Z,989.5
2018-03-29T11:25:37.966Z,989.5
2018-03-29T11:26:38.778Z,989.6
2018-03-29T11:27:39.820Z,989.5
2018-03-29T11:28:40.597Z,989.5
2018-03-29T11:29:41.348Z,989.6
2018-03-29T11:30:42.136Z,989.6
2018-03-29T11:31:42.942Z,989.6
2018-03-29T11:32:43.756Z,989.6
2018-03-29T11:33:44.571Z,989.6
2018-03-29T11:34:45.371Z,989.5
2018-03-29T11:35:46.116Z,989.5
2018-03-29T11:36:46.989Z,989.5
2018-03-29T11:37:47.742Z,989.5
2018-03-29T11:38:48.544Z,989.5
2018-03-29T11:39:49.217Z,989.5
2018-03-29T11:40:49.961Z,989.5
2018-03-29T11:41:50.672Z,989.5
2018-03-29T11:42:51.430Z,989.6
2018-03-29T11:43:52.273Z,989.5
2018-03-29T11:44:53.085Z,989.5
2018-03-29T11:45:53.880Z,989.6
2018-03-29T11:46:54.720Z,989.5
2018-03-29T11:47:55.525Z,989.5
2018-03-29T11:48:56.280Z,989.5
2018-03-29T11:49:57.082Z,989.5
2018-03-29T11:50:58.425Z,989.5
2018-03-29T11:51:59.362Z,989.5
2018-03-29T11:53:00.068Z,989.4
2018-03-29T11:54:00.870Z,989.5
2018-03-29T11:55:01.726Z,989.5
2018-03-29T11:56:02.515Z,989.5
2018-03-29T11:57:03.253Z,989.4
2018-03-29T11:58:03.989Z,989.4
2018-03-29T11:59:05.130Z,989.4
2018-03-29T12:00:05.932Z,989.4
2018-03-29T12:01:06.674Z,989.4
2018-03-29T12:02:07.416Z,989.4
2018-03-29T12:03:08.236Z,989.4
2018-03-29T12:04:09.045Z,989.4
2018-03-29T12:05:09.884Z,989.4
2018-03-29T12:06:10.606Z,989.4
2018-03-29T12:07:11.341Z,989.4
2018-03-29T12:08:12.071Z,989.4
2018-03-29T12:09:12.840Z,989.4
2018-03-29T12:10:14.469Z,989.4
2018-03-29T12:11:15.134Z,989.4
2018-03-29T12:12:15.866Z,989.4
2018-03-29T12:13:16.587Z,989.4
2018-03-29T12:14:17.401Z,989.4
2018-03-29T12:15:18.207Z,989.4
2018-03-29T12:16:18.951Z,989.4
2018-03-29T12:17:19.741Z,989.4
2018-03-29T12:18:20.458Z,989.4
2018-03-29T12:19:21.195Z,989.4
2018-03-29T12:20:21.936Z,989.4
2018-03-29T12:21:23.181Z,989.4
2018-03-29T12:22:23.929Z,989.4
2018-03-29T12:23:24.659Z,989.4
2018-03-29T12:24:25.392Z,989.4
2018-03-29T12:25:26.185Z,989.4
2018-03-29T12:26:27.008Z,989.4
2018-03-29T12:27:27.728Z,989.4
2018-03-29T12:28:28.473Z,989.4
2018-03-29T12:29:29.216Z,989.4
2018-03-29T12:30:30.002Z,989.4
2018-03-29T12:31:30.755Z,989.4
2018-03-29T12:32:31.541Z,989.4
2018-03-29T12:33:32.264Z,989.5
2018-03-29T12:34:33.016Z,989.4
2018-03-29T12:35:33.772Z,989.4
2018-03-29T12:36:34.574Z,989.4
2018-03-29T12:37:35.372Z,989.4
2018-03-29T12:38:36.190Z,989.5
2018-03-29T12:39:36.988Z,989.5
2018-03-29T12:40:37.752Z,989.4
2018-03-29T12:41:38.492Z,989.4
2018-03-29T12:42:39.276Z,989.3
2018-03-29T12:43:40.010Z,989.4
2018-03-29T12:44:40.754Z,989.4
2018-03-29T12:45:41.545Z,989.4
2018-03-29T12:46:42.270Z,989.4
2018-03-29T12:47:43.010Z,989.4
2018-03-29T12:48:43.808Z,989.4
2018-03-29T12:49:44.545Z,989.3
2018-03-29T12:50:45.322Z,989.4
2018-03-29T12:51:46.065Z,989.4
2018-03-29T12:52:46.804Z,989.4
2018-03-29T12:53:47.624Z,989.4
2018-03-29T12:54:48.350Z,989.4
2018-03-29T12:55:49.177Z,989.4
2018-03-29T12:56:50.036Z,989.4
2018-03-29T12:57:50.771Z,989.3
2018-03-29T12:58:51.519Z,989.3
2018-03-29T12:59:52.273Z,989.4
2018-03-29T13:00:53.081Z,989.4
2018-03-29T13:01:53.843Z,989.3
2018-03-29T13:02:54.652Z,989.4